Time;durP1;ratioP1;P1;durP2;ratioP2;P2;SDS_P1;SDS_P2;PMS_P1;PMS_P2;Temp;Humidity;BMP_temperature;BMP_pressure;BME280_temperature;BME280_humidity;BME280_pressure;Samples;Min_cycle;Max_cycle;Signal;HPM_P1;HPM_P2
2023/01/20 00:00:40;;;;;;;123.63;43.55;;;3.10;99.90;;;;;;5045092;28;20031;-68
2023/01/20 00:03:06;;;;;;;170.95;49.15;;;3.10;99.90;;;;;;5045969;28;20041;-68
2023/01/20 00:05:32;;;;;;;111.05;41.15;;;3.10;99.90;;;;;;5047491;28;20044;-69
2023/01/20 00:07:57;;;;;;;110.30;40.85;;;3.20;99.90;;;;;;5043100;28;20045;-68
2023/01/20 00:10:23;;;;;;;101.50;38.80;;;3.20;99.90;;;;;;5048646;28;20104;-68
2023/01/20 00:12:49;;;;;;;112.95;40.83;;;3.10;99.90;;;;;;5047215;28;20622;-68
2023/01/20 00:15:14;;;;;;;101.03;38.47;;;3.10;99.90;;;;;;5043104;28;20096;-68
2023/01/20 00:17:40;;;;;;;123.32;43.63;;;3.00;99.90;;;;;;5044219;28;20548;-68
2023/01/20 00:20:06;;;;;;;106.97;43.67;;;3.00;99.90;;;;;;5044452;28;20700;-69
2023/01/20 00:22:33;;;;;;;116.97;41.20;;;2.90;99.90;;;;;;5047813;28;20090;-68
2023/01/20 00:24:58;;;;;;;109.00;40.55;;;3.00;99.90;;;;;;5043731;28;20079;-68
2023/01/20 00:27:24;;;;;;;102.32;39.55;;;3.10;99.90;;;;;;5047531;28;20381;-68
2023/01/20 00:29:50;;;;;;;103.32;39.10;;;3.20;99.90;;;;;;5048824;28;20029;-68
2023/01/20 00:32:15;;;;;;;114.90;39.88;;;3.10;99.90;;;;;;5046322;28;20040;-68
2023/01/20 00:34:41;;;;;;;111.70;39.78;;;3.10;99.90;;;;;;5043899;28;20039;-68
2023/01/20 00:37:06;;;;;;;117.30;38.05;;;3.20;99.90;;;;;;5041968;28;20052;-68
2023/01/20 00:39:32;;;;;;;96.18;37.10;;;3.10;99.90;;;;;;5044690;28;20052;-68
2023/01/20 00:41:57;;;;;;;102.30;37.63;;;3.10;99.90;;;;;;5042109;28;20147;-68
2023/01/20 00:44:23;;;;;;;85.63;34.42;;;3.10;99.90;;;;;;5042616;28;20079;-68
2023/01/20 00:46:49;;;;;;;97.70;34.50;;;3.10;99.90;;;;;;5044663;28;20033;-68
2023/01/20 00:49:14;;;;;;;91.45;34.28;;;3.10;99.90;;;;;;5041954;28;20483;-68
2023/01/20 00:51:40;;;;;;;134.55;40.55;;;3.10;99.90;;;;;;5045229;28;20040;-68
2023/01/20 00:54:05;;;;;;;88.28;34.03;;;3.00;99.90;;;;;;5043626;28;20036;-68
2023/01/20 00:56:31;;;;;;;91.70;34.92;;;3.00;99.90;;;;;;5040995;28;20074;-69
2023/01/20 00:58:56;;;;;;;88.57;33.28;;;3.00;99.90;;;;;;5044924;28;20084;-68
2023/01/20 01:01:23;;;;;;;97.95;35.00;;;3.00;99.90;;;;;;5046073;28;20081;-68
2023/01/20 01:03:53;;;;;;;98.68;35.38;;;2.90;99.90;;;;;;5039664;28;20618;-69
2023/01/20 01:06:18;;;;;;;87.72;32.78;;;2.90;99.90;;;;;;5046615;28;20070;-68
2023/01/20 01:08:44;;;;;;;116.20;38.58;;;2.90;99.90;;;;;;5046822;28;20029;-68
2023/01/20 01:11:11;;;;;;;99.47;34.35;;;2.90;99.90;;;;;;5045822;28;20033;-68
2023/01/20 01:13:37;;;;;;;110.93;36.80;;;2.90;99.90;;;;;;5039462;28;20497;-68
2023/01/20 01:16:08;;;;;;;108.15;35.45;;;2.90;99.90;;;;;;5044638;28;20103;-68
2023/01/20 01:18:33;;;;;;;99.82;35.85;;;2.90;99.90;;;;;;5046622;28;20033;-68
2023/01/20 01:21:04;;;;;;;105.88;38.70;;;2.90;99.90;;;;;;5040405;28;20067;-68
2023/01/20 01:23:29;;;;;;;104.65;36.88;;;2.90;99.90;;;;;;5045533;28;20538;-68
2023/01/20 01:25:55;;;;;;;109.72;38.45;;;2.90;99.90;;;;;;5044222;28;20802;-68
2023/01/20 01:28:20;;;;;;;103.07;37.30;;;2.80;99.90;;;;;;5045158;28;20393;-69
2023/01/20 01:30:46;;;;;;;101.03;36.05;;;2.90;99.90;;;;;;5047264;28;20082;-69
2023/01/20 01:33:12;;;;;;;105.45;36.20;;;2.80;99.90;;;;;;5043892;28;20032;-68
2023/01/20 01:35:37;;;;;;;120.50;41.13;;;2.80;99.90;;;;;;5043038;28;20584;-68
2023/01/20 01:38:03;;;;;;;101.35;36.70;;;2.80;99.90;;;;;;5041099;28;20538;-68
2023/01/20 01:40:28;;;;;;;142.60;42.67;;;2.90;99.90;;;;;;5045598;28;20025;-68
2023/01/20 01:42:54;;;;;;;117.47;38.92;;;2.80;99.90;;;;;;5043872;28;20464;-68
2023/01/20 01:45:23;;;;;;;104.80;35.97;;;2.90;99.90;;;;;;5045830;28;20017;-68
2023/01/20 01:48:01;;;;;;;99.57;35.03;;;2.90;99.90;;;;;;5045783;28;20036;-68
2023/01/20 01:50:50;;;;;;;129.80;40.65;;;2.90;99.90;;;;;;5046286;28;20078;-68
2023/01/20 01:53:16;;;;;;;99.97;35.72;;;2.90;99.90;;;;;;5046106;28;20112;-68
2023/01/20 01:55:48;;;;;;;97.53;37.53;;;2.90;99.90;;;;;;5047452;28;20108;-68
2023/01/20 01:58:17;;;;;;;108.25;36.17;;;3.00;99.90;;;;;;5047626;28;20060;-68
2023/01/20 02:00:44;;;;;;;96.28;35.35;;;2.90;99.90;;;;;;5048579;28;20083;-68
2023/01/20 02:03:10;;;;;;;100.63;34.05;;;2.90;99.90;;;;;;5044317;28;20469;-68
2023/01/20 02:05:37;;;;;;;94.50;33.58;;;2.90;99.90;;;;;;5046913;28;20045;-68
2023/01/20 02:08:03;;;;;;;107.35;37.80;;;2.90;99.90;;;;;;5050170;28;20071;-68
2023/01/20 02:10:30;;;;;;;110.35;39.10;;;2.80;99.90;;;;;;5046729;28;20544;-68
2023/01/20 02:12:56;;;;;;;108.38;35.95;;;2.90;99.90;;;;;;5048963;28;20041;-68
2023/01/20 02:15:29;;;;;;;108.28;36.60;;;2.80;99.90;;;;;;5048328;28;20545;-68
2023/01/20 02:17:54;;;;;;;;;;;2.90;99.90;;;;;;5049581;28;20491;-68
2023/01/20 02:21:02;;;;;;;105.40;34.63;;;2.90;99.90;;;;;;5051606;28;19904;-68
2023/01/20 02:23:46;;;;;;;100.82;35.20;;;2.80;99.90;;;;;;5055234;28;20049;-69
2023/01/20 02:26:36;;;;;;;102.85;36.22;;;2.80;99.90;;;;;;5052494;28;20029;-68
2023/01/20 02:29:26;;;;;;;101.70;34.00;;;2.80;99.90;;;;;;5052760;28;20036;-69
2023/01/20 02:32:12;;;;;;;93.57;34.35;;;2.80;99.90;;;;;;5054051;28;20029;-68
2023/01/20 02:34:46;;;;;;;89.68;31.70;;;2.80;99.90;;;;;;5057243;28;20031;-69
2023/01/20 02:37:23;;;;;;;99.25;31.80;;;2.80;99.90;;;;;;5045064;28;20108;-68
2023/01/20 02:39:52;;;;;;;92.95;29.83;;;2.80;99.90;;;;;;5053051;28;20021;-69
2023/01/20 02:42:21;;;;;;;91.63;30.30;;;2.80;99.90;;;;;;5047072;28;20060;-68
2023/01/20 02:44:55;;;;;;;97.95;30.90;;;2.80;99.90;;;;;;5053449;28;20025;-69
2023/01/20 02:47:24;;;;;;;97.55;30.63;;;2.80;99.90;;;;;;5046363;28;20017;-68
2023/01/20 02:50:04;;;;;;;91.55;29.05;;;2.70;99.90;;;;;;5052481;28;20032;-69
2023/01/20 02:52:34;;;;;;;87.78;29.20;;;2.80;99.90;;;;;;5047495;28;20389;-69
2023/01/20 02:55:05;;;;;;;83.75;29.42;;;2.90;99.90;;;;;;5043986;28;20025;-69
2023/01/20 02:57:41;;;;;;;86.68;29.67;;;2.80;99.90;;;;;;5053382;28;20029;-68
2023/01/20 03:00:37;;;;;;;82.90;29.95;;;2.80;99.90;;;;;;5049843;28;20108;-69
2023/01/20 03:03:08;;;;;;;83.50;29.35;;;2.80;99.90;;;;;;5053343;28;20398;-69
2023/01/20 03:05:38;;;;;;;86.57;30.60;;;2.70;99.90;;;;;;5051845;28;20032;-69
2023/01/20 03:08:07;;;;;;;87.75;29.02;;;2.80;99.90;;;;;;5046837;28;20079;-69
2023/01/20 03:10:35;;;;;;;91.90;30.17;;;2.90;99.90;;;;;;5054336;28;20016;-69
2023/01/20 03:13:20;;;;;;;77.32;29.92;;;2.80;99.90;;;;;;5047317;28;20474;-69
2023/01/20 03:16:13;;;;;;;88.95;30.25;;;2.80;99.90;;;;;;5048390;28;20074;-69
2023/01/20 03:18:39;;;;;;;85.60;30.10;;;2.80;99.90;;;;;;5049352;28;20107;-69
2023/01/20 03:21:07;;;;;;;78.25;27.98;;;2.80;99.90;;;;;;5054936;28;20060;-68
2023/01/20 03:23:35;;;;;;;85.47;29.88;;;2.90;99.90;;;;;;5052942;28;20071;-69
2023/01/20 03:26:07;;;;;;;81.63;29.90;;;2.80;99.90;;;;;;5051782;28;20108;-69
2023/01/20 03:28:33;;;;;;;87.78;31.35;;;2.80;99.90;;;;;;5055641;28;20120;-69
2023/01/20 03:31:21;;;;;;;78.95;28.83;;;2.80;99.90;;;;;;4785211;28;15087060;-69
2023/01/20 03:33:49;;;;;;;100.55;31.63;;;2.80;99.90;;;;;;5036154;28;20332;-70
2023/01/20 03:36:16;;;;;;;82.35;30.23;;;2.90;99.90;;;;;;5050310;28;20469;-69
2023/01/20 03:38:43;;;;;;;86.93;31.33;;;2.90;99.90;;;;;;5055512;28;20108;-69
2023/01/20 03:41:46;;;;;;;88.60;32.35;;;2.90;99.90;;;;;;5056895;28;20028;-69
2023/01/20 03:44:22;;;;;;;93.90;33.40;;;2.90;99.90;;;;;;5054407;28;20037;-68
2023/01/20 03:47:00;;;;;;;86.90;31.55;;;2.90;99.90;;;;;;5055057;28;20029;-68
2023/01/20 03:49:34;;;;;;;85.38;29.48;;;2.80;99.90;;;;;;5054031;28;20107;-69
2023/01/20 03:52:29;;;;;;;85.57;31.25;;;2.80;99.90;;;;;;5058289;28;20024;-68
2023/01/20 03:55:01;;;;;;;94.25;33.55;;;2.80;99.90;;;;;;5052989;28;20037;-69
2023/01/20 03:57:39;;;;;;;89.03;31.67;;;2.90;99.90;;;;;;5050076;28;20021;-69
2023/01/20 04:00:07;;;;;;;104.47;34.90;;;2.90;99.90;;;;;;5057172;28;20016;-69
2023/01/20 04:02:34;;;;;;;108.22;35.25;;;2.90;99.90;;;;;;5049061;28;20065;-69
2023/01/20 04:05:01;;;;;;;103.63;32.67;;;2.90;99.90;;;;;;5060691;28;20423;-69
2023/01/20 04:07:30;;;;;;;105.35;34.00;;;2.90;99.90;;;;;;5061946;28;20059;-68
2023/01/20 04:10:02;;;;;;;90.25;32.67;;;3.00;99.90;;;;;;5054170;28;20074;-69
2023/01/20 04:12:27;;;;;;;106.77;36.23;;;3.10;99.90;;;;;;5055972;28;20108;-69
2023/01/20 04:14:53;;;;;;;93.30;33.30;;;3.00;99.90;;;;;;5063603;28;20374;-69
2023/01/20 04:17:19;;;;;;;98.68;33.78;;;2.90;99.90;;;;;;5061562;28;20040;-69
2023/01/20 04:19:45;;;;;;;94.35;33.65;;;2.80;99.90;;;;;;5051395;28;20488;-69
2023/01/20 04:22:45;;;;;;;101.60;33.88;;;2.80;99.90;;;;;;5059643;28;20040;-69
2023/01/20 04:25:16;;;;;;;103.82;34.10;;;2.90;99.90;;;;;;5045527;28;20108;-69
2023/01/20 04:27:41;;;;;;;93.75;32.35;;;2.80;99.90;;;;;;5051746;28;20025;-69
2023/01/20 04:30:08;;;;;;;105.03;35.38;;;2.90;99.90;;;;;;5055250;28;20071;-69
2023/01/20 04:32:34;;;;;;;95.30;32.95;;;2.90;99.90;;;;;;5052297;28;20389;-69
2023/01/20 04:34:59;;;;;;;92.88;32.70;;;2.80;99.90;;;;;;5057128;28;20013;-69
2023/01/20 04:37:25;;;;;;;86.00;33.10;;;2.80;99.90;;;;;;5056065;28;20079;-68
2023/01/20 04:39:50;;;;;;;103.53;35.65;;;2.90;99.90;;;;;;5051504;28;20035;-70
2023/01/20 04:42:16;;;;;;;92.63;34.60;;;2.90;99.90;;;;;;5051262;28;20040;-69
2023/01/20 04:44:42;;;;;;;95.53;34.75;;;2.90;99.90;;;;;;5059413;28;20481;-69
2023/01/20 04:47:07;;;;;;;96.90;36.05;;;3.00;99.90;;;;;;5055591;28;20033;-69
2023/01/20 04:49:34;;;;;;;94.47;32.17;;;2.90;99.90;;;;;;5048490;28;20102;-69
2023/01/20 04:51:59;;;;;;;91.50;33.60;;;2.90;99.90;;;;;;5047453;28;20476;-69
2023/01/20 04:54:25;;;;;;;103.28;35.40;;;2.80;99.90;;;;;;5061346;28;20021;-69
2023/01/20 04:56:50;;;;;;;92.05;34.00;;;2.90;99.90;;;;;;5050806;28;20029;-69
2023/01/20 04:59:16;;;;;;;92.78;34.58;;;2.90;99.90;;;;;;5051368;28;20028;-69
2023/01/20 05:01:42;;;;;;;106.13;37.95;;;2.80;99.90;;;;;;5044843;28;20037;-69
2023/01/20 05:04:07;;;;;;;108.28;36.38;;;2.90;99.90;;;;;;5055137;28;20033;-69
2023/01/20 05:06:34;;;;;;;95.65;35.88;;;2.80;99.90;;;;;;5054483;28;20036;-69
2023/01/20 05:08:59;;;;;;;92.20;35.28;;;2.80;99.90;;;;;;5052840;28;20082;-69
2023/01/20 05:11:25;;;;;;;108.72;37.83;;;2.90;99.90;;;;;;5062839;28;20412;-69
2023/01/20 05:13:51;;;;;;;99.13;36.05;;;3.00;99.90;;;;;;5045852;28;20039;-69
2023/01/20 05:16:22;;;;;;;110.38;37.85;;;3.00;99.90;;;;;;5051018;28;20049;-69
2023/01/20 05:18:48;;;;;;;108.17;35.27;;;3.00;99.90;;;;;;5056826;28;20039;-69
2023/01/20 05:21:14;;;;;;;90.88;32.80;;;3.00;99.90;;;;;;5050655;28;20025;-69
2023/01/20 05:23:40;;;;;;;100.53;34.70;;;3.00;99.90;;;;;;5050967;28;20392;-69
2023/01/20 05:26:05;;;;;;;107.85;33.50;;;3.00;99.90;;;;;;5062283;28;20377;-69
2023/01/20 05:28:31;;;;;;;86.80;32.20;;;3.00;99.90;;;;;;5055107;28;20029;-69
2023/01/20 05:30:56;;;;;;;95.68;33.13;;;3.10;99.90;;;;;;5047644;28;20028;-69
2023/01/20 05:33:22;;;;;;;82.72;30.33;;;3.00;99.90;;;;;;5057657;28;20067;-69
2023/01/20 05:35:48;;;;;;;86.32;31.77;;;3.00;99.90;;;;;;5069775;28;20491;-69
2023/01/20 05:38:13;;;;;;;85.60;30.05;;;2.90;99.90;;;;;;5071913;28;20485;-69
2023/01/20 05:40:39;;;;;;;75.93;28.23;;;3.00;99.90;;;;;;5072283;28;20056;-69
2023/01/20 05:43:05;;;;;;;81.65;29.50;;;2.90;99.90;;;;;;5069282;28;20075;-69
2023/01/20 05:45:31;;;;;;;75.18;28.23;;;2.90;99.90;;;;;;5070574;28;20047;-69
2023/01/20 05:47:58;;;;;;;82.65;29.13;;;2.90;99.90;;;;;;5042052;28;20056;-69
2023/01/20 05:50:25;;;;;;;77.97;28.85;;;3.00;99.90;;;;;;5051689;28;20028;-69
2023/01/20 05:52:51;;;;;;;76.95;30.83;;;3.00;99.90;;;;;;5051670;28;20029;-69
2023/01/20 05:55:17;;;;;;;92.38;31.80;;;3.00;99.90;;;;;;5050848;28;20017;-69
2023/01/20 05:57:42;;;;;;;89.07;30.10;;;2.90;99.90;;;;;;5052654;28;20017;-69
2023/01/20 06:00:09;;;;;;;86.38;30.50;;;3.00;99.90;;;;;;5052937;28;20126;-69
2023/01/20 06:02:34;;;;;;;82.70;29.35;;;3.00;99.90;;;;;;5070229;28;20405;-69
2023/01/20 06:05:03;;;;;;;74.95;28.08;;;3.00;99.90;;;;;;5072128;28;20050;-68
2023/01/20 06:07:29;;;;;;;75.80;27.63;;;3.00;99.90;;;;;;5055750;28;20041;-69
2023/01/20 06:09:55;;;;;;;78.15;29.63;;;3.00;99.90;;;;;;5051956;28;20021;-69
2023/01/20 06:12:21;;;;;;;77.03;29.25;;;3.10;99.90;;;;;;5052026;28;20485;-69
2023/01/20 06:14:47;;;;;;;80.75;29.40;;;3.00;99.90;;;;;;5050747;28;20035;-69
2023/01/20 06:17:12;;;;;;;73.78;27.70;;;3.00;99.90;;;;;;5051750;28;20531;-68
2023/01/20 06:19:38;;;;;;;77.60;26.70;;;2.90;99.90;;;;;;5052316;28;20061;-69
2023/01/20 06:22:04;;;;;;;73.82;27.45;;;2.90;99.90;;;;;;5050721;28;20025;-69
2023/01/20 06:24:29;;;;;;;77.85;28.55;;;3.00;99.90;;;;;;5039244;28;20033;-68
2023/01/20 06:26:55;;;;;;;74.65;26.25;;;2.80;99.90;;;;;;5048994;28;20094;-68
2023/01/20 06:29:21;;;;;;;75.53;27.80;;;3.00;99.90;;;;;;5055091;28;20064;-69
2023/01/20 06:31:46;;;;;;;77.28;29.08;;;3.10;99.90;;;;;;5051066;28;20029;-69
2023/01/20 06:34:12;;;;;;;80.85;29.00;;;3.10;99.90;;;;;;5051270;28;20024;-69
2023/01/20 06:36:38;;;;;;;77.43;28.30;;;3.00;99.90;;;;;;5046446;28;20025;-69
2023/01/20 06:39:04;;;;;;;85.75;31.27;;;3.10;99.90;;;;;;5049477;28;20030;-69
2023/01/20 06:41:29;;;;;;;72.90;28.45;;;3.10;99.90;;;;;;5038953;28;20021;-69
2023/01/20 06:43:55;;;;;;;85.75;29.02;;;3.20;99.90;;;;;;5035030;28;20041;-69
2023/01/20 06:46:21;;;;;;;80.63;28.48;;;3.20;99.90;;;;;;5040055;28;20051;-69
2023/01/20 06:48:48;;;;;;;86.95;28.20;;;3.10;99.90;;;;;;5055311;28;20492;-69
2023/01/20 06:51:16;;;;;;;90.32;29.27;;;3.10;99.90;;;;;;5055174;28;20025;-69
2023/01/20 06:53:42;;;;;;;87.00;29.27;;;3.10;99.90;;;;;;5047790;28;20095;-69
2023/01/20 06:56:10;;;;;;;85.57;28.85;;;3.10;99.90;;;;;;5054176;28;20024;-69
2023/01/20 06:58:36;;;;;;;90.88;29.33;;;3.20;99.90;;;;;;5052393;28;20048;-68
2023/01/20 07:01:07;;;;;;;85.53;29.25;;;3.10;99.90;;;;;;5051999;28;20284;-68
2023/01/20 07:03:34;;;;;;;80.30;29.83;;;3.10;99.90;;;;;;5051857;28;20119;-68
2023/01/20 07:06:13;;;;;;;91.07;31.52;;;3.20;99.90;;;;;;5054464;28;20029;-68
2023/01/20 07:08:39;;;;;;;100.30;32.20;;;3.20;99.90;;;;;;5050738;28;20505;-68
2023/01/20 07:11:04;;;;;;;89.38;29.45;;;3.10;99.90;;;;;;5052258;28;20057;-67
2023/01/20 07:13:30;;;;;;;78.03;30.42;;;3.10;99.90;;;;;;5054202;28;20032;-67
2023/01/20 07:15:55;;;;;;;84.95;29.92;;;3.10;99.90;;;;;;5054826;28;20092;-67
2023/01/20 07:18:21;;;;;;;89.88;31.13;;;3.20;99.90;;;;;;5052982;28;20091;-67
2023/01/20 07:20:51;;;;;;;82.47;29.27;;;3.20;99.90;;;;;;5054604;28;20024;-67
2023/01/20 07:23:17;;;;;;;88.82;30.55;;;3.10;99.90;;;;;;5052818;28;20111;-67
2023/01/20 07:25:42;;;;;;;80.80;29.83;;;3.10;99.90;;;;;;5034867;28;20096;-66
2023/01/20 07:28:08;;;;;;;93.32;30.30;;;3.20;99.90;;;;;;5041646;28;20036;-67
2023/01/20 07:30:34;;;;;;;94.47;31.63;;;3.20;99.90;;;;;;5054400;28;20044;-68
2023/01/20 07:32:59;;;;;;;82.78;30.80;;;3.10;99.90;;;;;;5054269;28;20378;-67
2023/01/20 07:35:25;;;;;;;88.88;33.53;;;3.20;99.90;;;;;;5054584;28;20036;-67
2023/01/20 07:37:51;;;;;;;96.10;34.45;;;3.10;99.90;;;;;;5057614;28;20460;-67
2023/01/20 07:40:17;;;;;;;95.20;33.50;;;3.10;99.90;;;;;;5074541;28;20027;-67
2023/01/20 07:42:43;;;;;;;93.43;34.20;;;3.10;99.90;;;;;;5070947;28;20370;-67
2023/01/20 07:45:09;;;;;;;112.47;35.35;;;3.00;99.90;;;;;;5036648;28;20063;-67
2023/01/20 07:47:34;;;;;;;125.40;36.40;;;3.00;99.90;;;;;;5034691;28;20104;-67
2023/01/20 07:50:00;;;;;;;104.70;33.92;;;2.90;99.90;;;;;;5034224;28;20054;-67
2023/01/20 07:52:25;;;;;;;100.65;33.83;;;2.90;99.90;;;;;;5033652;28;20030;-67
2023/01/20 07:54:51;;;;;;;104.25;35.50;;;3.00;99.90;;;;;;5046643;28;20032;-67
2023/01/20 07:57:17;;;;;;;100.97;36.50;;;2.90;99.90;;;;;;5050832;28;20175;-67
2023/01/20 07:59:42;;;;;;;109.70;37.20;;;2.90;99.90;;;;;;5047701;28;20022;-67
2023/01/20 08:02:09;;;;;;;113.82;34.35;;;2.80;99.90;;;;;;5037188;28;20048;-67
2023/01/20 08:04:34;;;;;;;89.05;34.03;;;2.80;99.90;;;;;;5031511;28;20030;-67
2023/01/20 08:07:00;;;;;;;107.55;35.20;;;2.90;99.90;;;;;;5033348;28;20022;-67
2023/01/20 08:09:26;;;;;;;93.13;31.38;;;2.90;99.90;;;;;;5040016;28;20056;-67
2023/01/20 08:11:52;;;;;;;94.35;33.42;;;2.90;99.90;;;;;;5052944;28;20025;-68
2023/01/20 08:14:18;;;;;;;120.43;39.20;;;3.00;99.90;;;;;;5037161;28;20043;-67
2023/01/20 08:16:43;;;;;;;96.43;33.80;;;2.90;99.90;;;;;;5031747;28;20104;-67
2023/01/20 08:19:09;;;;;;;92.45;32.20;;;2.90;99.90;;;;;;5039199;28;20040;-67
2023/01/20 08:21:34;;;;;;;100.60;33.45;;;2.80;99.90;;;;;;5050207;28;20029;-67
2023/01/20 08:24:04;;;;;;;86.80;30.17;;;2.80;99.90;;;;;;5051093;28;20464;-68
2023/01/20 08:26:30;;;;;;;83.50;30.90;;;2.90;99.90;;;;;;5047675;28;20476;-68
2023/01/20 08:29:03;;;;;;;77.63;29.45;;;2.80;99.90;;;;;;5046546;28;20508;-67
2023/01/20 08:31:28;;;;;;;81.05;29.20;;;2.80;99.90;;;;;;5047759;28;20067;-68
2023/01/20 08:33:56;;;;;;;58.53;23.92;;;2.90;99.90;;;;;;5051676;28;20067;-67
2023/01/20 08:36:31;;;;;;;76.72;28.17;;;2.90;99.90;;;;;;5048577;28;20067;-67
2023/01/20 08:39:00;;;;;;;77.07;29.17;;;3.00;99.90;;;;;;5032026;28;20025;-68
2023/01/20 08:41:32;;;;;;;74.05;26.85;;;2.90;99.90;;;;;;5032806;28;20385;-68
2023/01/20 08:43:59;;;;;;;90.70;30.00;;;2.80;99.90;;;;;;5033085;28;20109;-68
2023/01/20 08:46:25;;;;;;;76.65;28.48;;;2.90;99.90;;;;;;5031998;28;20104;-67
2023/01/20 08:48:52;;;;;;;68.20;26.75;;;3.00;99.90;;;;;;5032273;28;20108;-67
2023/01/20 08:51:21;;;;;;;72.32;28.25;;;2.90;99.90;;;;;;5033097;28;20482;-67
2023/01/20 08:53:47;;;;;;;72.15;28.15;;;2.90;99.90;;;;;;5035443;28;20040;-68
2023/01/20 08:56:14;;;;;;;83.57;29.15;;;2.90;99.90;;;;;;5052650;28;20059;-67
2023/01/20 08:58:40;;;;;;;84.25;29.92;;;2.90;99.90;;;;;;5052647;28;20025;-67
2023/01/20 09:01:14;;;;;;;71.65;26.75;;;2.90;99.90;;;;;;5052249;28;20025;-68
2023/01/20 09:03:40;;;;;;;71.15;26.55;;;3.00;99.90;;;;;;5057490;28;20036;-67
2023/01/20 09:06:07;;;;;;;68.40;26.50;;;3.00;99.90;;;;;;5063696;28;20074;-67
2023/01/20 09:08:33;;;;;;;62.53;27.05;;;3.00;99.90;;;;;;5045876;28;20122;-68
2023/01/20 09:11:07;;;;;;;62.92;24.58;;;3.00;99.90;;;;;;5046056;28;20076;-68
2023/01/20 09:13:33;;;;;;;61.10;25.00;;;3.00;99.90;;;;;;5047690;28;20024;-68
2023/01/20 09:15:58;;;;;;;67.85;26.33;;;3.00;99.90;;;;;;5034553;28;20296;-68
2023/01/20 09:18:24;;;;;;;66.55;25.30;;;3.00;99.90;;;;;;5040719;28;20199;-68
2023/01/20 09:20:50;;;;;;;68.15;27.40;;;3.10;99.90;;;;;;5037908;28;20154;-68
2023/01/20 09:23:15;;;;;;;62.72;26.05;;;2.90;99.90;;;;;;5048019;28;20477;-69
2023/01/20 09:25:41;;;;;;;58.55;25.42;;;3.00;99.90;;;;;;5037732;28;20029;-68
2023/01/20 09:28:07;;;;;;;60.88;24.98;;;3.00;99.90;;;;;;5047965;28;20093;-68
2023/01/20 09:30:32;;;;;;;63.67;25.85;;;3.00;99.90;;;;;;5039841;28;20021;-68
2023/01/20 09:32:58;;;;;;;61.85;24.83;;;3.00;99.90;;;;;;5043857;28;20037;-68
2023/01/20 09:35:25;;;;;;;62.80;26.40;;;3.00;99.90;;;;;;5048156;28;20090;-69
2023/01/20 09:46:27;;;;;;;78.13;33.88;;;3.00;99.90;;;;;;5041440;28;20048;-70
2023/01/20 09:55:28;;;;;;;67.00;29.55;;;3.10;99.90;;;;;;5046781;28;20127;-69
2023/01/20 09:58:09;;;;;;;56.30;26.50;;;3.20;99.90;;;;;;5045978;28;20505;-69
2023/01/20 10:00:39;;;;;;;69.63;27.73;;;3.20;99.90;;;;;;5045048;28;20020;-70
2023/01/20 10:03:12;;;;;;;66.28;29.30;;;3.10;99.90;;;;;;5047655;28;20066;-70
2023/01/20 10:05:39;;;;;;;67.13;28.77;;;3.10;99.90;;;;;;5040454;28;20029;-70
2023/01/20 10:08:17;;;;;;;61.85;27.48;;;3.20;99.90;;;;;;5047962;28;20047;-69
2023/01/20 10:11:02;;;;;;;55.60;25.90;;;3.30;99.90;;;;;;5047444;28;20393;-69
2023/01/20 10:13:35;;;;;;;57.13;26.05;;;3.30;99.90;;;;;;5047983;28;20112;-69
2023/01/20 10:16:05;;;;;;;61.75;29.75;;;3.10;99.90;;;;;;5050612;28;20025;-70
2023/01/20 10:18:46;;;;;;;55.38;24.75;;;3.20;99.90;;;;;;5051514;28;20033;-69
2023/01/20 10:21:33;;;;;;;53.80;24.73;;;3.30;99.90;;;;;;5050546;28;20043;-69
2023/01/20 10:24:07;;;;;;;79.93;31.10;;;3.30;99.90;;;;;;5045580;28;20048;-70
2023/01/20 10:26:42;;;;;;;61.00;28.25;;;3.20;99.90;;;;;;5046494;28;20033;-70
2023/01/20 10:29:20;;;;;;;63.17;28.10;;;3.30;99.90;;;;;;5042394;28;20358;-69
2023/01/20 10:32:00;;;;;;;65.32;28.88;;;3.20;99.90;;;;;;5047390;28;20041;-71
2023/01/20 10:34:37;;;;;;;64.68;27.38;;;3.30;99.90;;;;;;5051364;28;20036;-71
2023/01/20 10:37:08;;;;;;;52.78;24.40;;;3.40;99.90;;;;;;5049928;28;20025;-71
2023/01/20 10:40:06;;;;;;;59.28;25.20;;;3.40;99.90;;;;;;5048752;28;20108;-70
2023/01/20 10:42:32;;;;;;;50.38;23.70;;;3.40;99.90;;;;;;5047920;28;20112;-70
2023/01/20 10:44:59;;;;;;;63.97;26.23;;;3.40;99.90;;;;;;5050385;28;20055;-71
2023/01/20 10:47:46;;;;;;;50.40;24.73;;;3.40;99.90;;;;;;5048449;28;20013;-70
2023/01/20 10:50:30;;;;;;;49.25;23.63;;;3.40;99.90;;;;;;5047683;28;20240;-72
2023/01/20 10:53:20;;;;;;;52.08;24.65;;;3.40;99.90;;;;;;5045609;28;20031;-70
2023/01/20 10:56:31;;;;;;;49.97;23.23;;;3.30;99.90;;;;;;5048644;28;20029;-70
2023/01/20 10:59:04;;;;;;;79.53;24.83;;;3.30;99.90;;;;;;5038869;28;20500;-70
2023/01/20 11:01:30;;;;;;;41.83;21.20;;;3.40;99.90;;;;;;5047709;28;20389;-72
2023/01/20 11:03:56;;;;;;;39.53;19.35;;;3.20;99.90;;;;;;5046779;28;20041;-73
2023/01/20 11:06:25;;;;;;;46.90;20.08;;;3.20;99.90;;;;;;5048910;28;20029;-73
2023/01/20 11:08:52;;;;;;;39.08;17.73;;;3.20;99.90;;;;;;5048556;28;20047;-72
2023/01/20 11:11:21;;;;;;;38.40;18.63;;;3.20;99.90;;;;;;5048001;28;20025;-72
2023/01/20 11:13:50;;;;;;;35.15;18.52;;;3.30;99.90;;;;;;5047504;28;20032;-72
2023/01/20 11:16:27;;;;;;;55.33;21.80;;;3.30;99.90;;;;;;5049270;28;20033;-72
2023/01/20 11:19:05;;;;;;;38.03;19.58;;;3.40;99.90;;;;;;5043941;28;20117;-74
2023/01/20 11:21:34;;;;;;;37.00;19.17;;;3.30;99.90;;;;;;5045769;28;20048;-74
2023/01/20 11:24:00;;;;;;;52.10;22.15;;;3.30;99.90;;;;;;5046274;28;20482;-74
2023/01/20 11:26:35;;;;;;;48.22;20.27;;;3.50;99.90;;;;;;5044068;28;20082;-74
2023/01/20 11:29:10;;;;;;;43.42;20.52;;;3.40;99.90;;;;;;5043147;28;20028;-72
2023/01/20 11:31:52;;;;;;;36.65;18.85;;;3.50;99.90;;;;;;5043033;28;20048;-73
2023/01/20 11:34:24;;;;;;;37.72;19.98;;;3.70;99.90;;;;;;5046629;28;20550;-73
2023/01/20 11:37:20;;;;;;;37.40;18.83;;;3.80;99.90;;;;;;5046676;28;20104;-75
2023/01/20 11:39:49;;;;;;;36.67;19.52;;;3.90;99.90;;;;;;5046310;28;20395;-73
2023/01/20 11:42:20;;;;;;;42.17;20.58;;;3.90;99.90;;;;;;5047834;28;20130;-74
2023/01/20 11:44:48;;;;;;;39.42;20.67;;;3.90;99.90;;;;;;5044998;28;20063;-74
2023/01/20 11:47:32;;;;;;;37.85;19.08;;;4.00;99.90;;;;;;5047742;28;20134;-74
2023/01/20 11:50:03;;;;;;;32.33;18.75;;;4.00;99.90;;;;;;5045922;28;20056;-74
2023/01/20 11:52:35;;;;;;;40.65;19.60;;;4.10;99.90;;;;;;5046035;28;20500;-74
2023/01/20 11:55:19;;;;;;;44.72;20.77;;;4.20;99.90;;;;;;5046794;28;20036;-74
2023/01/20 11:57:55;;;;;;;48.83;22.85;;;4.10;99.90;;;;;;5042668;28;20082;-73
2023/01/20 12:00:41;;;;;;;37.78;20.83;;;4.20;99.90;;;;;;5049368;28;20412;-74
2023/01/20 12:03:28;;;;;;;34.58;19.88;;;4.20;99.90;;;;;;5044568;28;20052;-74
2023/01/20 12:05:58;;;;;;;38.05;20.38;;;4.30;99.90;;;;;;5045797;28;20536;-76
2023/01/20 12:08:48;;;;;;;40.35;20.77;;;4.30;99.90;;;;;;5045608;28;20016;-75
2023/01/20 12:11:41;;;;;;;40.05;21.17;;;4.40;99.90;;;;;;5045108;28;20529;-73
2023/01/20 12:14:23;;;;;;;;;;;4.40;99.90;;;;;;5038321;28;20032;-73
2023/01/20 12:17:03;;;;;;;38.75;19.27;;;4.40;99.90;;;;;;5047347;28;19918;-73
2023/01/20 12:19:41;;;;;;;33.58;19.48;;;4.50;99.90;;;;;;5042876;28;20527;-71
2023/01/20 12:22:19;;;;;;;37.28;19.15;;;4.50;99.90;;;;;;5042818;28;20180;-73
2023/01/20 12:25:08;;;;;;;55.55;23.67;;;4.50;99.90;;;;;;5039993;28;20021;-73
2023/01/20 12:27:41;;;;;;;35.67;20.10;;;4.40;99.90;;;;;;5040790;28;20033;-73
2023/01/20 12:30:37;;;;;;;44.00;22.63;;;4.50;99.90;;;;;;5043156;28;20138;-74
2023/01/20 12:33:03;;;;;;;39.80;22.17;;;4.50;99.90;;;;;;5041598;28;20041;-74
2023/01/20 12:35:39;;;;;;;42.42;23.77;;;4.50;99.90;;;;;;5042699;28;20029;-74
2023/01/20 12:38:07;;;;;;;39.28;22.83;;;4.60;99.90;;;;;;5040616;28;20147;-73
2023/01/20 12:40:50;;;;;;;47.70;23.67;;;4.60;99.90;;;;;;5042121;28;20208;-74
2023/01/20 12:43:46;;;;;;;38.67;21.38;;;4.70;99.90;;;;;;5044477;28;20036;-74
2023/01/20 12:46:34;;;;;;;42.33;21.70;;;4.70;99.90;;;;;;5042673;28;20021;-71
2023/01/20 12:49:18;;;;;;;32.30;19.83;;;4.70;99.90;;;;;;5040428;28;20028;-71
2023/01/20 12:52:16;;;;;;;40.42;21.77;;;4.60;99.90;;;;;;5042371;28;20036;-72
2023/01/20 12:55:08;;;;;;;39.33;22.33;;;4.60;99.90;;;;;;5043300;28;20063;-73
2023/01/20 12:58:11;;;;;;;41.80;23.67;;;4.60;99.90;;;;;;5042102;28;20033;-71
2023/01/20 13:00:46;;;;;;;37.88;21.00;;;4.60;99.90;;;;;;5042692;28;20051;-71
2023/01/20 13:03:50;;;;;;;35.25;20.73;;;4.50;99.90;;;;;;5042828;28;21195;-73
2023/01/20 13:06:28;;;;;;;44.00;23.52;;;4.60;99.90;;;;;;5039982;28;20591;-70
2023/01/20 13:08:57;;;;;;;51.05;25.63;;;4.60;99.90;;;;;;5044871;28;20465;-73